Terminal Aerodrome Forecast
Issued by NWS

Home | Current Version | Previous Version | Text Only | Print | Product List | Glossary On
Versions: 1 2 3 4 5 6 7 8 9 10 11 12 13 14
000
FTUS43 KMQT 192300
TAFIWD
TAF
KIWD 192327Z 2000/2024 19009KT P6SM BKN050 WS010/20035KT
     FM200600 21005KT P6SM BKN120
     FM201400 28006KT P6SM SKC
     FM202000 36006KT P6SM SKC
      AMD LTD TO CLD VIS AND WIND=

USA.gov is the U.S. government's official web portal to all federal, state and local government web resources and services.